createdAt,value
2018-07-20T00:00:23.014Z,22.60
2018-07-20T00:02:50.845Z,22.30
2018-07-20T00:05:17.900Z,21.90
2018-07-20T00:07:44.884Z,22.00
2018-07-20T00:12:38.982Z,22.00
2018-07-20T00:15:05.972Z,21.90
2018-07-20T00:17:32.965Z,22.10
2018-07-20T00:19:59.999Z,22.10
2018-07-20T00:22:27.797Z,22.30
2018-07-20T00:24:54.787Z,22.00
2018-07-20T00:27:21.838Z,23.10
2018-07-20T00:32:27.354Z,23.80
2018-07-20T00:34:54.337Z,24.10
2018-07-20T00:37:21.316Z,23.40
2018-07-20T00:39:48.342Z,23.70
2018-07-20T00:42:15.344Z,23.90
2018-07-20T00:44:43.043Z,24.20
2018-07-20T00:47:10.097Z,24.20
2018-07-20T00:49:37.141Z,24.20
2018-07-20T00:52:04.185Z,24.50
2018-07-20T00:54:32.797Z,24.60
2018-07-20T00:56:59.771Z,24.50
2018-07-20T00:59:26.763Z,24.80
2018-07-20T01:01:54.275Z,24.70
2018-07-20T01:04:21.259Z,25.10
2018-07-20T01:06:48.235Z,25.30
2018-07-20T01:09:15.289Z,25.50
2018-07-20T01:11:42.263Z,25.60
2018-07-20T01:14:09.248Z,25.30
2018-07-20T01:19:03.361Z,25.40
2018-07-20T01:21:30.338Z,25.10
2018-07-20T01:23:57.391Z,24.70
2018-07-20T01:26:24.376Z,25.30
2018-07-20T01:31:18.477Z,25.80
2018-07-20T01:33:45.462Z,25.20
2018-07-20T01:36:12.447Z,24.40
2018-07-20T01:38:39.481Z,24.70
2018-07-20T01:41:06.467Z,25.10
2018-07-20T01:43:33.447Z,25.30
2018-07-20T01:46:00.494Z,25.60
2018-07-20T01:51:06.910Z,25.00
2018-07-20T01:53:33.956Z,24.90
2018-07-20T01:56:00.935Z,23.70
2018-07-20T01:58:31.267Z,24.50
2018-07-20T02:00:58.240Z,23.80
2018-07-20T02:03:25.222Z,24.10
2018-07-20T02:05:52.263Z,24.20
2018-07-20T02:08:19.249Z,25.10
2018-07-20T02:10:46.248Z,24.80
2018-07-20T02:13:13.276Z,25.80
2018-07-20T02:15:40.258Z,26.80
2018-07-20T02:20:34.342Z,27.20
2018-07-20T02:23:01.330Z,27.20
2018-07-20T02:25:28.324Z,26.70
2018-07-20T02:27:55.347Z,27.20
2018-07-20T02:30:22.332Z,26.90
2018-07-20T02:32:49.317Z,27.10
2018-07-20T02:35:16.377Z,27.70
2018-07-20T02:37:43.371Z,28.10
2018-07-20T02:45:04.606Z,27.30
2018-07-20T02:47:31.629Z,27.80
2018-07-20T02:49:58.697Z,28.10
2018-07-20T02:52:25.725Z,28.00
2018-07-20T02:54:55.403Z,28.30
2018-07-20T02:57:20.546Z,29.40
2018-07-20T03:02:14.590Z,28.70
2018-07-20T03:04:41.623Z,29.40
2018-07-20T03:07:08.616Z,29.70
2018-07-20T03:12:16.143Z,29.20
2018-07-20T03:14:43.125Z,29.20
2018-07-20T03:17:10.111Z,28.90
2018-07-20T03:19:37.819Z,28.50
2018-07-20T03:22:04.800Z,29.00
2018-07-20T03:24:32.754Z,28.80
2018-07-20T03:26:59.790Z,28.90
2018-07-20T03:29:26.777Z,28.60
2018-07-20T03:31:53.775Z,29.80
2018-07-20T03:34:21.774Z,30.70
2018-07-20T03:36:48.833Z,31.30
2018-07-20T03:39:15.816Z,31.70
2018-07-20T03:41:42.871Z,31.20
2018-07-20T03:44:09.849Z,30.90
2018-07-20T03:46:36.830Z,30.70
2018-07-20T03:49:03.877Z,30.50
2018-07-20T03:51:36.596Z,30.10
2018-07-20T03:54:03.659Z,29.90
2018-07-20T03:56:30.644Z,30.30
2018-07-20T03:58:57.625Z,30.30
2018-07-20T04:01:24.953Z,30.70
2018-07-20T04:03:51.890Z,30.90
2018-07-20T04:06:18.912Z,31.10
2018-07-20T04:08:45.942Z,29.60
2018-07-20T04:11:12.934Z,29.50
2018-07-20T04:13:39.938Z,29.90
2018-07-20T04:16:06.998Z,30.20
2018-07-20T04:18:34.625Z,30.60
2018-07-20T04:21:01.652Z,30.80
2018-07-20T04:23:28.710Z,31.20
2018-07-20T04:28:35.365Z,30.70
2018-07-20T04:31:02.363Z,30.50
2018-07-20T04:33:29.343Z,29.60
2018-07-20T04:35:56.446Z,32.10
2018-07-20T04:38:23.431Z,33.60
2018-07-20T04:43:19.216Z,36.10
2018-07-20T04:45:46.196Z,36.90
2018-07-20T04:48:14.127Z,35.50
2018-07-20T04:50:41.184Z,34.30
2018-07-20T04:53:08.178Z,35.10
2018-07-20T04:55:35.306Z,34.70
2018-07-20T04:58:02.298Z,35.10
2018-07-20T05:00:29.531Z,34.70
2018-07-20T05:02:56.516Z,34.20
2018-07-20T05:05:25.468Z,33.80
2018-07-20T05:07:50.615Z,33.90
2018-07-20T05:10:18.353Z,33.20
2018-07-20T05:12:45.634Z,34.10
2018-07-20T05:15:12.719Z,34.70
2018-07-20T05:17:39.692Z,34.20
2018-07-20T05:20:06.716Z,33.50
2018-07-20T05:22:34.061Z,34.80
2018-07-20T05:25:01.016Z,35.90
2018-07-20T05:27:33.964Z,35.70
2018-07-20T05:30:00.950Z,34.10
2018-07-20T05:32:27.942Z,34.40
2018-07-20T05:34:55.011Z,35.30
2018-07-20T05:37:22.067Z,33.30
2018-07-20T05:39:50.046Z,33.60
2018-07-20T05:42:17.118Z,32.00
2018-07-20T05:44:44.928Z,31.90
2018-07-20T05:49:51.286Z,33.00
2018-07-20T05:52:18.343Z,32.50
2018-07-20T05:54:45.247Z,30.70
2018-07-20T05:57:12.305Z,31.20
2018-07-20T05:59:39.283Z,27.80
2018-07-20T06:04:33.391Z,28.80
2018-07-20T06:07:02.440Z,29.30
2018-07-20T06:09:27.401Z,27.40
2018-07-20T06:11:54.432Z,30.50
2018-07-20T06:14:21.440Z,29.90
2018-07-20T06:16:48.491Z,29.30
2018-07-20T06:21:54.508Z,27.90
2018-07-20T06:24:22.583Z,25.50
2018-07-20T06:26:49.568Z,23.50
2018-07-20T06:29:17.508Z,21.90
2018-07-20T06:31:44.561Z,21.70
2018-07-20T06:34:11.545Z,21.60
2018-07-20T06:36:38.549Z,21.30
2018-07-20T06:39:05.577Z,20.80
2018-07-20T06:41:32.566Z,21.50
2018-07-20T06:43:59.622Z,20.70
2018-07-20T06:46:26.681Z,20.50
2018-07-20T06:48:53.659Z,19.20
2018-07-20T06:51:21.006Z,20.50
2018-07-20T06:53:48.001Z,19.60
2018-07-20T06:56:14.984Z,18.20
2018-07-20T06:58:42.002Z,18.90
2018-07-20T07:01:09.349Z,18.90
2018-07-20T07:03:36.303Z,18.90
2018-07-20T07:06:03.288Z,17.30
2018-07-20T07:08:30.341Z,18.40
2018-07-20T07:10:57.332Z,18.20
2018-07-20T07:13:24.315Z,17.50
2018-07-20T07:15:52.302Z,18.70
2018-07-20T07:18:19.300Z,17.20
2018-07-20T07:20:46.283Z,17.20
2018-07-20T07:23:13.360Z,15.80
2018-07-20T07:25:40.341Z,17.50
2018-07-20T07:28:07.331Z,16.30
2018-07-20T07:30:34.350Z,16.70
2018-07-20T07:35:40.004Z,14.80
2018-07-20T07:38:06.914Z,15.00
2018-07-20T07:40:33.890Z,15.30
2018-07-20T07:43:00.910Z,13.80
2018-07-20T07:45:27.890Z,15.00
2018-07-20T07:47:54.867Z,13.30
2018-07-20T07:50:21.921Z,13.70
2018-07-20T07:52:48.902Z,12.80
2018-07-20T07:55:15.891Z,12.90
2018-07-20T07:57:43.286Z,12.50
2018-07-20T08:00:16.173Z,13.20
2018-07-20T08:02:43.236Z,11.90
2018-07-20T08:05:10.217Z,12.50
2018-07-20T08:07:37.207Z,13.30
2018-07-20T08:10:04.336Z,12.70
2018-07-20T08:15:02.331Z,12.40
2018-07-20T08:17:29.391Z,11.80
2018-07-20T08:22:27.442Z,12.40
2018-07-20T08:24:54.457Z,12.80
2018-07-20T08:27:21.439Z,11.90
2018-07-20T08:29:48.427Z,11.80
2018-07-20T08:32:15.453Z,11.50
2018-07-20T08:34:43.312Z,11.20
2018-07-20T08:39:50.792Z,10.80
2018-07-20T08:42:16.988Z,10.50
2018-07-20T08:44:43.979Z,10.80
2018-07-20T08:47:11.042Z,9.70
2018-07-20T08:49:38.024Z,9.30
2018-07-20T08:52:05.147Z,9.10
2018-07-20T08:56:59.234Z,9.50
2018-07-20T08:59:27.581Z,9.00
2018-07-20T09:01:54.904Z,9.90
2018-07-20T09:04:21.850Z,9.30
2018-07-20T09:06:48.832Z,9.10
2018-07-20T09:09:15.854Z,8.80
2018-07-20T09:11:42.847Z,9.60
2018-07-20T09:14:09.819Z,8.00
2018-07-20T09:16:36.877Z,7.10
2018-07-20T09:19:03.850Z,6.80
2018-07-20T09:21:30.828Z,7.10
2018-07-20T09:23:57.847Z,6.60
2018-07-20T09:26:24.836Z,7.60
2018-07-20T09:28:51.808Z,8.10
2018-07-20T09:31:18.828Z,8.40
2018-07-20T09:33:45.817Z,6.80
2018-07-20T09:36:12.808Z,6.40
2018-07-20T09:38:39.857Z,6.20
2018-07-20T09:43:45.374Z,5.00
2018-07-20T09:46:12.350Z,4.80
2018-07-20T09:48:39.334Z,4.20
2018-07-20T09:51:06.427Z,4.30
2018-07-20T09:53:33.415Z,5.60
2018-07-20T09:56:00.399Z,3.80
2018-07-20T09:58:27.450Z,4.50
2018-07-20T10:00:54.429Z,3.70
2018-07-20T10:03:21.412Z,4.10
2018-07-20T10:05:48.479Z,4.80
2018-07-20T10:08:15.459Z,6.40
2018-07-20T10:10:43.392Z,4.90
2018-07-20T10:13:10.420Z,4.00
2018-07-20T10:15:37.395Z,4.90
2018-07-20T10:20:31.514Z,5.20
2018-07-20T10:22:58.505Z,4.30
2018-07-20T10:25:26.426Z,4.10
2018-07-20T10:27:53.500Z,3.80
2018-07-20T10:30:21.142Z,2.90
2018-07-20T10:32:48.128Z,2.70
2018-07-20T10:35:15.158Z,2.00
2018-07-20T10:37:43.091Z,1.30
2018-07-20T10:40:10.086Z,2.70
2018-07-20T10:42:37.161Z,2.90
2018-07-20T10:45:04.144Z,3.00
2018-07-20T10:47:32.461Z,3.00
2018-07-20T10:49:59.502Z,2.70
2018-07-20T10:55:06.458Z,2.70
2018-07-20T10:57:33.436Z,2.80
2018-07-20T11:00:00.421Z,2.70
2018-07-20T11:02:27.453Z,3.80
2018-07-20T11:04:54.440Z,5.00
2018-07-20T11:07:23.073Z,2.50
2018-07-20T11:09:50.143Z,3.50
2018-07-20T11:12:17.126Z,4.20
2018-07-20T11:14:44.548Z,2.90
2018-07-20T11:17:11.538Z,2.60
2018-07-20T11:19:38.523Z,1.80
2018-07-20T11:22:05.503Z,1.30
2018-07-20T11:24:32.557Z,1.30
2018-07-20T11:26:59.539Z,1.60
2018-07-20T11:29:26.524Z,1.60
2018-07-20T11:31:53.554Z,1.00
2018-07-20T11:34:20.574Z,1.10
2018-07-20T11:36:47.520Z,1.00
2018-07-20T11:39:14.581Z,1.00
2018-07-20T11:44:08.732Z,1.00
2018-07-20T11:46:35.756Z,1.00
2018-07-20T11:49:02.744Z,1.00
2018-07-20T11:51:29.730Z,1.00
2018-07-20T11:53:56.756Z,1.00
2018-07-20T11:56:23.745Z,1.00
2018-07-20T11:58:50.725Z,1.00
2018-07-20T12:01:17.762Z,1.00
2018-07-20T12:06:23.266Z,1.00
2018-07-20T12:08:50.259Z,1.00
2018-07-20T12:11:17.243Z,1.00
2018-07-20T12:13:45.123Z,1.00
2018-07-20T12:16:12.114Z,1.00
2018-07-20T12:18:39.100Z,1.00
2018-07-20T12:21:06.175Z,1.00
2018-07-20T12:23:34.000Z,1.00
2018-07-20T12:28:28.105Z,1.00
2018-07-20T12:30:55.977Z,1.00
2018-07-20T12:33:22.953Z,1.00
2018-07-20T12:35:49.997Z,1.00
2018-07-20T12:38:16.992Z,1.40
2018-07-20T12:40:43.982Z,1.60
2018-07-20T12:43:11.042Z,2.90
2018-07-20T12:45:38.306Z,7.00
2018-07-20T12:48:05.181Z,10.80
2018-07-20T12:52:59.281Z,12.90
2018-07-20T12:55:26.273Z,12.00
2018-07-20T12:57:53.339Z,12.70
2018-07-20T13:00:20.331Z,13.10
2018-07-20T13:02:47.328Z,11.60
2018-07-20T13:05:14.390Z,12.30
2018-07-20T13:07:41.383Z,11.70
2018-07-20T13:10:08.380Z,11.50
2018-07-20T13:12:35.504Z,11.00
2018-07-20T13:17:41.398Z,9.70
2018-07-20T13:20:08.288Z,9.50
2018-07-20T13:22:35.281Z,9.10
2018-07-20T13:25:02.410Z,9.30
2018-07-20T13:27:29.334Z,8.30
2018-07-20T13:29:56.316Z,8.50
2018-07-20T13:32:24.303Z,10.40
2018-07-20T13:34:51.287Z,8.60
2018-07-20T13:37:18.296Z,7.70
2018-07-20T13:39:45.357Z,8.20
2018-07-20T13:42:12.349Z,8.30
2018-07-20T13:44:40.168Z,9.00
2018-07-20T13:47:07.194Z,7.40
2018-07-20T13:49:34.179Z,7.60
2018-07-20T13:52:01.161Z,7.30
2018-07-20T13:56:55.265Z,7.20
2018-07-20T13:59:22.255Z,4.80
2018-07-20T14:01:49.312Z,4.30
2018-07-20T14:04:17.188Z,4.70
2018-07-20T14:06:45.846Z,5.00
2018-07-20T14:09:12.879Z,6.00
2018-07-20T14:11:39.854Z,6.10
2018-07-20T14:14:06.838Z,7.50
2018-07-20T14:16:33.857Z,6.90
2018-07-20T14:19:00.882Z,8.10
2018-07-20T14:24:06.378Z,9.30
2018-07-20T14:29:01.393Z,8.90
2018-07-20T14:31:28.471Z,9.20
2018-07-20T14:33:55.437Z,9.20
2018-07-20T14:36:22.443Z,9.90
2018-07-20T14:38:49.473Z,9.10
2018-07-20T14:41:16.451Z,9.00
2018-07-20T14:43:43.434Z,9.40
2018-07-20T14:46:10.469Z,9.90
2018-07-20T14:48:37.458Z,10.80
2018-07-20T14:51:04.457Z,10.10
2018-07-20T14:53:31.512Z,10.80
2018-07-20T14:55:58.498Z,11.30
2018-07-20T14:58:25.487Z,11.90
2018-07-20T15:00:52.511Z,12.30
2018-07-20T15:03:19.508Z,13.00
2018-07-20T15:05:46.503Z,12.70
2018-07-20T15:08:13.562Z,13.80
2018-07-20T15:10:40.557Z,13.00
2018-07-20T15:13:07.549Z,12.30
2018-07-20T15:15:35.463Z,12.30
2018-07-20T15:18:02.500Z,12.20
2018-07-20T15:20:29.467Z,12.80
2018-07-20T15:22:57.331Z,12.80
2018-07-20T15:27:51.646Z,12.80
2018-07-20T15:30:18.713Z,12.70
2018-07-20T15:32:45.702Z,13.00
2018-07-20T15:35:13.583Z,12.80
2018-07-20T15:37:40.614Z,12.80
2018-07-20T15:42:46.158Z,14.20
2018-07-20T15:45:13.148Z,15.00
2018-07-20T15:47:40.130Z,15.60
2018-07-20T15:50:07.154Z,17.30
2018-07-20T15:55:01.132Z,17.20
2018-07-20T15:57:28.197Z,17.30
2018-07-20T15:59:55.322Z,18.40
2018-07-20T16:02:22.191Z,18.70
2018-07-20T16:04:50.081Z,19.30
2018-07-20T16:07:17.445Z,18.50
2018-07-20T16:09:44.428Z,19.40
2018-07-20T16:12:11.495Z,21.50
2018-07-20T16:14:38.475Z,24.40
2018-07-20T16:17:05.477Z,26.20
2018-07-20T16:19:32.479Z,33.40
2018-07-20T16:24:27.490Z,78.40
2018-07-20T16:26:54.543Z,88.00
2018-07-20T16:29:21.526Z,89.90
2018-07-20T16:31:49.357Z,91.60
2018-07-20T16:34:16.388Z,90.00
2018-07-20T16:36:43.372Z,90.30
2018-07-20T16:39:10.351Z,84.40
2018-07-20T16:41:37.415Z,83.90
2018-07-20T16:44:04.391Z,88.80
2018-07-20T16:49:09.932Z,80.70
2018-07-20T16:51:36.907Z,83.30
2018-07-20T16:54:03.946Z,82.50
2018-07-20T16:56:31.795Z,85.80
2018-07-20T16:58:58.786Z,86.80
2018-07-20T17:01:25.769Z,90.50
2018-07-20T17:03:52.837Z,91.50
2018-07-20T17:08:46.908Z,92.90
2018-07-20T17:11:13.949Z,93.40
2018-07-20T17:13:40.928Z,92.50
2018-07-20T17:16:07.912Z,93.30
2018-07-20T17:18:34.974Z,92.40
2018-07-20T17:21:01.965Z,93.70
2018-07-20T17:23:29.128Z,93.80
2018-07-20T17:25:56.177Z,94.70
2018-07-20T17:28:23.995Z,93.70
2018-07-20T17:30:50.982Z,94.30
2018-07-20T17:33:18.057Z,93.70
2018-07-20T17:35:45.920Z,93.50
2018-07-20T17:38:12.928Z,93.00
2018-07-20T17:40:39.993Z,92.90
2018-07-20T17:43:06.992Z,93.40
2018-07-20T17:45:33.980Z,92.90
2018-07-20T17:48:01.024Z,92.30
2018-07-20T17:50:28.020Z,91.80
2018-07-20T17:52:55.756Z,90.60
2018-07-20T17:55:22.842Z,91.00
2018-07-20T18:00:29.330Z,90.90
2018-07-20T18:02:56.309Z,89.80
2018-07-20T18:05:23.301Z,88.50
2018-07-20T18:07:50.410Z,83.20
2018-07-20T18:10:17.434Z,86.80
2018-07-20T18:12:44.428Z,89.00
2018-07-20T18:15:11.480Z,88.20
2018-07-20T18:17:38.465Z,89.60
2018-07-20T18:20:05.501Z,89.00
2018-07-20T18:22:32.704Z,87.90
2018-07-20T18:24:59.693Z,87.10
2018-07-20T18:27:26.683Z,87.40
2018-07-20T18:29:53.793Z,89.00
2018-07-20T18:32:20.776Z,90.20
2018-07-20T18:34:47.755Z,88.90
2018-07-20T18:37:14.814Z,91.20
2018-07-20T18:39:45.302Z,91.20
2018-07-20T18:42:12.305Z,91.80
2018-07-20T18:49:46.594Z,88.70
2018-07-20T18:52:13.584Z,88.40
2018-07-20T18:54:40.569Z,89.50
2018-07-20T18:57:07.661Z,90.30
2018-07-20T18:59:34.653Z,89.80
2018-07-20T19:02:01.688Z,88.80
2018-07-20T19:04:30.510Z,88.70
2018-07-20T19:06:57.497Z,88.70
2018-07-20T19:09:24.480Z,88.10
2018-07-20T19:11:51.504Z,89.20
2018-07-20T19:14:18.502Z,89.80
2018-07-20T19:16:45.477Z,89.60
2018-07-20T19:19:12.502Z,90.70
2018-07-20T19:21:39.490Z,90.00
2018-07-20T19:24:06.507Z,89.10
2018-07-20T19:26:33.665Z,87.50
2018-07-20T19:29:00.667Z,88.50
2018-07-20T19:31:27.693Z,89.00
2018-07-20T19:33:54.914Z,90.00
2018-07-20T19:36:21.887Z,90.90
2018-07-20T19:38:48.954Z,91.10
2018-07-20T19:41:17.271Z,87.90
2018-07-20T19:43:42.991Z,88.70
2018-07-20T19:46:09.976Z,89.00
2018-07-20T19:48:37.108Z,90.10
2018-07-20T19:51:04.954Z,89.70
2018-07-20T19:53:35.345Z,86.00
2018-07-20T19:56:02.386Z,81.10
2018-07-20T19:58:29.384Z,81.10
2018-07-20T20:00:56.402Z,80.30
2018-07-20T20:03:24.355Z,81.30
2018-07-20T20:08:34.839Z,79.70
2018-07-20T20:11:02.590Z,85.70
2018-07-20T20:13:29.575Z,87.30
2018-07-20T20:15:56.657Z,90.40
2018-07-20T20:18:23.646Z,91.30
2018-07-20T20:20:50.632Z,91.90
2018-07-20T20:23:18.638Z,91.60
2018-07-20T20:25:45.676Z,94.20
2018-07-20T20:28:12.614Z,94.90
2018-07-20T20:30:39.645Z,96.60
2018-07-20T20:33:06.622Z,96.60
2018-07-20T20:35:33.596Z,97.90
2018-07-20T20:38:00.662Z,98.60
2018-07-20T20:40:27.983Z,99.30
2018-07-20T20:42:54.926Z,99.50
2018-07-20T20:45:21.953Z,99.90
2018-07-20T20:47:49.192Z,99.80
2018-07-20T20:50:15.924Z,99.90
2018-07-20T20:52:42.990Z,99.90
2018-07-20T20:55:10.061Z,99.90
2018-07-20T20:57:38.866Z,99.90
2018-07-20T21:00:05.904Z,99.90
2018-07-20T21:02:32.887Z,99.90
2018-07-20T21:04:59.879Z,99.90
2018-07-20T21:07:26.957Z,99.90
2018-07-20T21:09:53.941Z,99.90
2018-07-20T21:12:20.957Z,99.90
2018-07-20T21:14:47.966Z,99.90
2018-07-20T21:17:14.946Z,99.90
2018-07-20T21:19:42.022Z,99.90
2018-07-20T21:22:09.049Z,99.90
2018-07-20T21:24:36.032Z,99.70
2018-07-20T21:32:08.612Z,98.20
2018-07-20T21:34:35.648Z,97.90
2018-07-20T21:37:02.624Z,96.70
2018-07-20T21:39:29.926Z,96.20
2018-07-20T21:41:56.909Z,95.90
2018-07-20T21:44:23.887Z,96.20
2018-07-20T21:46:50.880Z,95.40
2018-07-20T21:49:17.940Z,95.90
2018-07-20T21:54:12.010Z,95.90
2018-07-20T21:56:39.049Z,98.00
2018-07-20T21:59:06.038Z,98.20
2018-07-20T22:01:33.023Z,98.40
2018-07-20T22:04:00.058Z,98.20
2018-07-20T22:06:30.190Z,98.60
2018-07-20T22:08:57.180Z,99.90
2018-07-20T22:11:24.237Z,99.00
2018-07-20T22:13:51.227Z,99.90
2018-07-20T22:16:19.048Z,99.80
2018-07-20T22:21:13.161Z,99.90
2018-07-20T22:23:42.475Z,99.90
2018-07-20T22:26:09.026Z,99.90
2018-07-20T22:28:36.790Z,99.40
2018-07-20T22:33:43.756Z,99.10
2018-07-20T22:38:55.002Z,98.70
2018-07-20T22:41:21.999Z,97.80
2018-07-20T22:43:48.993Z,97.40
2018-07-20T22:46:16.043Z,96.70
2018-07-20T22:48:43.024Z,96.60
2018-07-20T22:51:10.012Z,96.10
2018-07-20T22:53:37.042Z,95.50
2018-07-20T22:56:04.025Z,95.80
2018-07-20T22:58:31.954Z,95.80
2018-07-20T23:01:00.778Z,95.60
2018-07-20T23:03:27.790Z,94.60
2018-07-20T23:05:55.709Z,94.30
2018-07-20T23:08:23.706Z,94.10
2018-07-20T23:10:50.700Z,93.80
2018-07-20T23:15:45.674Z,94.30
2018-07-20T23:18:14.012Z,94.30
2018-07-20T23:20:41.796Z,94.10
2018-07-20T23:23:08.785Z,95.80
2018-07-20T23:25:35.790Z,95.80
2018-07-20T23:28:02.780Z,96.70
2018-07-20T23:30:29.825Z,96.30
2018-07-20T23:32:56.795Z,96.50
2018-07-20T23:35:23.820Z,97.10
2018-07-20T23:37:50.897Z,97.50
2018-07-20T23:40:18.206Z,96.30
2018-07-20T23:42:45.565Z,96.60
2018-07-20T23:45:12.596Z,95.80
2018-07-20T23:47:39.581Z,95.70
2018-07-20T23:52:45.868Z,95.90
2018-07-20T23:55:12.851Z,95.00
2018-07-20T23:57:40.665Z,94.40
